sensor_id;sensor_type;location;lat;lon;timestamp;temperature;humidity
12452;DHT22;6291;48.924;12.204;2023-05-07T00:02:51;10.80;1.00
12452;DHT22;6291;48.924;12.204;2023-05-07T00:07:56;11.80;1.00
12452;DHT22;6291;48.924;12.204;2023-05-07T00:13:00;11.80;1.00
12452;DHT22;6291;48.924;12.204;2023-05-07T00:18:04;12.40;1.00
12452;DHT22;6291;48.924;12.204;2023-05-07T00:23:09;12.30;1.00
12452;DHT22;6291;48.924;12.204;2023-05-07T00:28:12;12.20;97.70
12452;DHT22;6291;48.924;12.204;2023-05-07T00:33:15;12.20;63.40
12452;DHT22;6291;48.924;12.204;2023-05-07T00:38:20;12.10;99.90
12452;DHT22;6291;48.924;12.204;2023-05-07T00:43:23;12.00;99.90
12452;DHT22;6291;48.924;12.204;2023-05-07T00:48:29;12.00;99.90
12452;DHT22;6291;48.924;12.204;2023-05-07T00:53:34;11.90;1.00
12452;DHT22;6291;48.924;12.204;2023-05-07T00:58:37;11.90;1.00
12452;DHT22;6291;48.924;12.204;2023-05-07T01:03:41;12.00;99.90
12452;DHT22;6291;48.924;12.204;2023-05-07T01:08:46;12.10;92.60
12452;DHT22;6291;48.924;12.204;2023-05-07T01:13:52;12.00;99.90
12452;DHT22;6291;48.924;12.204;2023-05-07T01:18:56;11.90;1.00
12452;DHT22;6291;48.924;12.204;2023-05-07T01:24:00;11.90;1.00
12452;DHT22;6291;48.924;12.204;2023-05-07T01:29:06;11.90;1.00
12452;DHT22;6291;48.924;12.204;2023-05-07T01:34:09;11.90;1.00
12452;DHT22;6291;48.924;12.204;2023-05-07T01:39:15;11.90;99.90
12452;DHT22;6291;48.924;12.204;2023-05-07T01:44:19;11.80;99.90
12452;DHT22;6291;48.924;12.204;2023-05-07T01:49:23;11.80;1.00
12452;DHT22;6291;48.924;12.204;2023-05-07T01:54:27;11.80;1.00
12452;DHT22;6291;48.924;12.204;2023-05-07T01:59:32;11.70;22.40
12452;DHT22;6291;48.924;12.204;2023-05-07T02:04:36;11.80;1.00
12452;DHT22;6291;48.924;12.204;2023-05-07T02:09:41;11.70;1.00
12452;DHT22;6291;48.924;12.204;2023-05-07T02:14:45;11.70;99.90
12452;DHT22;6291;48.924;12.204;2023-05-07T02:19:48;11.70;1.00
12452;DHT22;6291;48.924;12.204;2023-05-07T02:24:53;11.60;1.00
12452;DHT22;6291;48.924;12.204;2023-05-07T02:29:57;11.40;99.90
12452;DHT22;6291;48.924;12.204;2023-05-07T02:35:00;11.50;1.00
12452;DHT22;6291;48.924;12.204;2023-05-07T02:40:06;10.90;99.90
12452;DHT22;6291;48.924;12.204;2023-05-07T02:45:10;11.50;1.00
12452;DHT22;6291;48.924;12.204;2023-05-07T02:50:14;11.50;1.00
12452;DHT22;6291;48.924;12.204;2023-05-07T02:55:19;11.40;99.90
12452;DHT22;6291;48.924;12.204;2023-05-07T03:00:22;11.40;99.90
12452;DHT22;6291;48.924;12.204;2023-05-07T03:05:36;11.30;99.90
12452;DHT22;6291;48.924;12.204;2023-05-07T03:10:40;11.20;99.90
12452;DHT22;6291;48.924;12.204;2023-05-07T03:15:44;11.20;1.00
12452;DHT22;6291;48.924;12.204;2023-05-07T03:20:47;11.10;1.00
12452;DHT22;6291;48.924;12.204;2023-05-07T03:25:54;11.00;1.00
12452;DHT22;6291;48.924;12.204;2023-05-07T03:30:57;10.90;1.00
12452;DHT22;6291;48.924;12.204;2023-05-07T03:36:01;10.80;1.00
12452;DHT22;6291;48.924;12.204;2023-05-07T03:41:06;10.70;1.00
12452;DHT22;6291;48.924;12.204;2023-05-07T03:46:09;10.80;1.00
12452;DHT22;6291;48.924;12.204;2023-05-07T03:51:13;10.80;1.00
12452;DHT22;6291;48.924;12.204;2023-05-07T03:56:17;10.70;99.90
12452;DHT22;6291;48.924;12.204;2023-05-07T04:01:24;10.70;99.90
12452;DHT22;6291;48.924;12.204;2023-05-07T04:06:28;10.70;1.00
12452;DHT22;6291;48.924;12.204;2023-05-07T04:11:34;10.60;1.00
12452;DHT22;6291;48.924;12.204;2023-05-07T04:16:39;10.50;1.00
12452;DHT22;6291;48.924;12.204;2023-05-07T04:21:43;10.50;99.90
12452;DHT22;6291;48.924;12.204;2023-05-07T04:26:48;10.60;97.60
12452;DHT22;6291;48.924;12.204;2023-05-07T04:31:55;7.90;99.90
12452;DHT22;6291;48.924;12.204;2023-05-07T04:36:59;10.70;1.00
12452;DHT22;6291;48.924;12.204;2023-05-07T04:42:04;10.80;99.90
12452;DHT22;6291;48.924;12.204;2023-05-07T04:47:10;11.00;1.00
12452;DHT22;6291;48.924;12.204;2023-05-07T04:52:13;11.30;99.90
12452;DHT22;6291;48.924;12.204;2023-05-07T04:57:18;11.40;99.90
12452;DHT22;6291;48.924;12.204;2023-05-07T05:02:22;11.70;99.90
12452;DHT22;6291;48.924;12.204;2023-05-07T05:07:26;11.80;1.00
12452;DHT22;6291;48.924;12.204;2023-05-07T05:12:30;12.10;1.00
12452;DHT22;6291;48.924;12.204;2023-05-07T05:17:35;12.40;39.00
12452;DHT22;6291;48.924;12.204;2023-05-07T05:22:40;12.50;1.00
12452;DHT22;6291;48.924;12.204;2023-05-07T05:27:46;12.50;90.10
12452;DHT22;6291;48.924;12.204;2023-05-07T05:32:50;13.40;1.00
12452;DHT22;6291;48.924;12.204;2023-05-07T05:37:54;14.10;1.00
12452;DHT22;6291;48.924;12.204;2023-05-07T05:42:59;14.50;1.00
12452;DHT22;6291;48.924;12.204;2023-05-07T05:48:03;14.70;1.00
12452;DHT22;6291;48.924;12.204;2023-05-07T05:53:06;15.30;1.00
12452;DHT22;6291;48.924;12.204;2023-05-07T05:58:11;15.90;1.00
12452;DHT22;6291;48.924;12.204;2023-05-07T06:03:18;16.30;1.00
12452;DHT22;6291;48.924;12.204;2023-05-07T06:08:22;16.40;1.00
12452;DHT22;6291;48.924;12.204;2023-05-07T06:13:27;16.80;99.90
12452;DHT22;6291;48.924;12.204;2023-05-07T06:18:30;17.60;99.90
12452;DHT22;6291;48.924;12.204;2023-05-07T06:23:34;17.50;99.90
12452;DHT22;6291;48.924;12.204;2023-05-07T06:28:40;18.20;99.90
12452;DHT22;6291;48.924;12.204;2023-05-07T06:33:46;18.10;99.90
12452;DHT22;6291;48.924;12.204;2023-05-07T06:38:49;18.30;99.90
12452;DHT22;6291;48.924;12.204;2023-05-07T06:43:54;18.50;99.90
12452;DHT22;6291;48.924;12.204;2023-05-07T06:49:03;19.30;99.90
12452;DHT22;6291;48.924;12.204;2023-05-07T06:54:07;20.10;99.90
12452;DHT22;6291;48.924;12.204;2023-05-07T06:59:14;19.80;99.90
12452;DHT22;6291;48.924;12.204;2023-05-07T07:04:18;20.40;99.90
12452;DHT22;6291;48.924;12.204;2023-05-07T07:09:28;20.80;99.90
12452;DHT22;6291;48.924;12.204;2023-05-07T07:14:34;21.10;99.90
12452;DHT22;6291;48.924;12.204;2023-05-07T07:19:38;21.60;99.90
12452;DHT22;6291;48.924;12.204;2023-05-07T07:24:42;20.50;99.90
12452;DHT22;6291;48.924;12.204;2023-05-07T07:29:49;20.70;99.90
12452;DHT22;6291;48.924;12.204;2023-05-07T07:34:53;18.50;99.90
12452;DHT22;6291;48.924;12.204;2023-05-07T07:39:56;19.90;99.90
12452;DHT22;6291;48.924;12.204;2023-05-07T07:45:01;19.70;99.90
12452;DHT22;6291;48.924;12.204;2023-05-07T07:50:09;21.10;99.90
12452;DHT22;6291;48.924;12.204;2023-05-07T07:55:20;21.00;99.90
12452;DHT22;6291;48.924;12.204;2023-05-07T08:00:28;21.60;99.90
12452;DHT22;6291;48.924;12.204;2023-05-07T08:05:32;21.60;99.90
12452;DHT22;6291;48.924;12.204;2023-05-07T08:10:37;20.90;99.90
12452;DHT22;6291;48.924;12.204;2023-05-07T08:15:50;20.70;99.90
12452;DHT22;6291;48.924;12.204;2023-05-07T08:20:54;20.30;99.90
12452;DHT22;6291;48.924;12.204;2023-05-07T08:26:00;20.10;99.90
12452;DHT22;6291;48.924;12.204;2023-05-07T08:31:06;21.10;99.90
12452;DHT22;6291;48.924;12.204;2023-05-07T08:36:13;20.70;99.90
12452;DHT22;6291;48.924;12.204;2023-05-07T08:41:16;20.70;99.90
12452;DHT22;6291;48.924;12.204;2023-05-07T08:46:22;19.90;99.90
12452;DHT22;6291;48.924;12.204;2023-05-07T08:51:29;21.40;99.90
12452;DHT22;6291;48.924;12.204;2023-05-07T08:56:33;19.90;99.90
12452;DHT22;6291;48.924;12.204;2023-05-07T09:01:39;20.20;99.90
12452;DHT22;6291;48.924;12.204;2023-05-07T09:06:43;20.50;99.90
12452;DHT22;6291;48.924;12.204;2023-05-07T09:11:48;18.90;99.90
12452;DHT22;6291;48.924;12.204;2023-05-07T09:17:03;22.30;99.90
12452;DHT22;6291;48.924;12.204;2023-05-07T09:22:07;22.40;99.90
12452;DHT22;6291;48.924;12.204;2023-05-07T09:27:43;23.00;99.90
12452;DHT22;6291;48.924;12.204;2023-05-07T09:32:47;23.60;99.90
12452;DHT22;6291;48.924;12.204;2023-05-07T09:37:56;23.30;99.90
12452;DHT22;6291;48.924;12.204;2023-05-07T09:43:10;23.80;99.90
12452;DHT22;6291;48.924;12.204;2023-05-07T09:48:21;25.90;99.90
12452;DHT22;6291;48.924;12.204;2023-05-07T09:53:29;26.40;99.90
12452;DHT22;6291;48.924;12.204;2023-05-07T09:58:39;26.50;99.90
12452;DHT22;6291;48.924;12.204;2023-05-07T10:03:45;27.20;99.90
12452;DHT22;6291;48.924;12.204;2023-05-07T10:08:49;27.60;99.90
12452;DHT22;6291;48.924;12.204;2023-05-07T10:13:55;28.00;99.90
12452;DHT22;6291;48.924;12.204;2023-05-07T10:18:59;28.60;99.90
12452;DHT22;6291;48.924;12.204;2023-05-07T10:24:04;28.10;99.90
12452;DHT22;6291;48.924;12.204;2023-05-07T10:29:17;28.60;99.90
12452;DHT22;6291;48.924;12.204;2023-05-07T10:34:26;28.20;99.90
12452;DHT22;6291;48.924;12.204;2023-05-07T10:39:30;28.60;99.90
12452;DHT22;6291;48.924;12.204;2023-05-07T10:44:36;27.70;99.90
12452;DHT22;6291;48.924;12.204;2023-05-07T10:55:21;27.20;99.90
12452;DHT22;6291;48.924;12.204;2023-05-07T11:00:58;26.30;99.90
12452;DHT22;6291;48.924;12.204;2023-05-07T11:06:12;25.30;99.90
12452;DHT22;6291;48.924;12.204;2023-05-07T11:11:45;27.30;99.90
12452;DHT22;6291;48.924;12.204;2023-05-07T11:17:07;26.80;99.90
12452;DHT22;6291;48.924;12.204;2023-05-07T11:22:36;26.20;99.90
12452;DHT22;6291;48.924;12.204;2023-05-07T11:27:54;26.20;99.90
12452;DHT22;6291;48.924;12.204;2023-05-07T11:33:01;25.40;99.90
12452;DHT22;6291;48.924;12.204;2023-05-07T11:38:05;25.20;99.90
12452;DHT22;6291;48.924;12.204;2023-05-07T11:43:11;24.80;99.90
12452;DHT22;6291;48.924;12.204;2023-05-07T11:48:16;24.50;99.90
12452;DHT22;6291;48.924;12.204;2023-05-07T11:53:19;23.60;99.90
12452;DHT22;6291;48.924;12.204;2023-05-07T11:58:24;23.30;99.90
12452;DHT22;6291;48.924;12.204;2023-05-07T12:03:29;24.70;99.90
12452;DHT22;6291;48.924;12.204;2023-05-07T12:08:37;25.40;99.90
12452;DHT22;6291;48.924;12.204;2023-05-07T12:13:41;26.90;99.90
12452;DHT22;6291;48.924;12.204;2023-05-07T12:18:46;28.00;99.90
12452;DHT22;6291;48.924;12.204;2023-05-07T12:23:50;27.50;99.90
12452;DHT22;6291;48.924;12.204;2023-05-07T12:28:53;26.70;99.90
12452;DHT22;6291;48.924;12.204;2023-05-07T12:33:58;27.20;99.90
12452;DHT22;6291;48.924;12.204;2023-05-07T12:39:03;27.30;99.90
12452;DHT22;6291;48.924;12.204;2023-05-07T12:44:07;28.10;99.90
12452;DHT22;6291;48.924;12.204;2023-05-07T12:49:12;26.90;99.90
12452;DHT22;6291;48.924;12.204;2023-05-07T12:54:28;26.50;99.90
12452;DHT22;6291;48.924;12.204;2023-05-07T12:59:32;24.80;99.90
12452;DHT22;6291;48.924;12.204;2023-05-07T13:04:37;26.10;99.90
12452;DHT22;6291;48.924;12.204;2023-05-07T13:09:40;24.70;99.90
12452;DHT22;6291;48.924;12.204;2023-05-07T13:14:44;25.10;99.90
12452;DHT22;6291;48.924;12.204;2023-05-07T13:19:48;25.10;99.90
12452;DHT22;6291;48.924;12.204;2023-05-07T13:24:52;24.40;99.90
12452;DHT22;6291;48.924;12.204;2023-05-07T13:29:55;24.60;99.90
12452;DHT22;6291;48.924;12.204;2023-05-07T13:35:00;24.90;99.90
12452;DHT22;6291;48.924;12.204;2023-05-07T13:40:05;25.20;99.90
12452;DHT22;6291;48.924;12.204;2023-05-07T13:45:09;25.40;99.90
12452;DHT22;6291;48.924;12.204;2023-05-07T13:50:14;25.60;99.90
12452;DHT22;6291;48.924;12.204;2023-05-07T13:55:18;25.50;99.90
12452;DHT22;6291;48.924;12.204;2023-05-07T14:00:23;25.40;99.90
12452;DHT22;6291;48.924;12.204;2023-05-07T14:05:28;25.60;99.90
12452;DHT22;6291;48.924;12.204;2023-05-07T14:10:31;25.70;99.90
12452;DHT22;6291;48.924;12.204;2023-05-07T14:15:36;25.50;99.90
12452;DHT22;6291;48.924;12.204;2023-05-07T14:20:41;25.30;99.90
12452;DHT22;6291;48.924;12.204;2023-05-07T14:25:45;25.00;99.90
12452;DHT22;6291;48.924;12.204;2023-05-07T14:30:49;25.20;99.90
12452;DHT22;6291;48.924;12.204;2023-05-07T14:35:54;25.10;99.90
12452;DHT22;6291;48.924;12.204;2023-05-07T14:40:57;24.90;99.90
12452;DHT22;6291;48.924;12.204;2023-05-07T14:46:00;23.10;99.90
12452;DHT22;6291;48.924;12.204;2023-05-07T14:51:05;24.60;99.90
12452;DHT22;6291;48.924;12.204;2023-05-07T14:56:08;24.50;99.90
12452;DHT22;6291;48.924;12.204;2023-05-07T15:01:12;24.30;99.90
12452;DHT22;6291;48.924;12.204;2023-05-07T15:06:17;24.30;99.90
12452;DHT22;6291;48.924;12.204;2023-05-07T15:11:21;24.10;99.90
12452;DHT22;6291;48.924;12.204;2023-05-07T15:16:24;23.90;99.90
12452;DHT22;6291;48.924;12.204;2023-05-07T15:21:29;24.10;99.90
12452;DHT22;6291;48.924;12.204;2023-05-07T15:26:34;23.70;99.90
12452;DHT22;6291;48.924;12.204;2023-05-07T15:31:38;23.40;99.90
12452;DHT22;6291;48.924;12.204;2023-05-07T15:36:43;23.00;99.90
12452;DHT22;6291;48.924;12.204;2023-05-07T15:41:46;22.90;99.90
12452;DHT22;6291;48.924;12.204;2023-05-07T15:46:50;22.60;99.90
12452;DHT22;6291;48.924;12.204;2023-05-07T15:51:54;22.40;99.90
12452;DHT22;6291;48.924;12.204;2023-05-07T15:56:58;22.40;99.90
12452;DHT22;6291;48.924;12.204;2023-05-07T16:02:02;22.30;99.90
12452;DHT22;6291;48.924;12.204;2023-05-07T16:07:07;22.40;99.90
12452;DHT22;6291;48.924;12.204;2023-05-07T16:12:13;22.20;99.90
12452;DHT22;6291;48.924;12.204;2023-05-07T16:17:17;22.20;99.90
12452;DHT22;6291;48.924;12.204;2023-05-07T16:22:22;22.20;99.90
12452;DHT22;6291;48.924;12.204;2023-05-07T16:27:26;22.10;99.90
12452;DHT22;6291;48.924;12.204;2023-05-07T16:32:29;21.80;99.90
12452;DHT22;6291;48.924;12.204;2023-05-07T16:37:34;21.40;99.90
12452;DHT22;6291;48.924;12.204;2023-05-07T16:42:37;21.30;99.90
12452;DHT22;6291;48.924;12.204;2023-05-07T16:47:41;21.00;99.90
12452;DHT22;6291;48.924;12.204;2023-05-07T16:52:45;20.90;99.90
12452;DHT22;6291;48.924;12.204;2023-05-07T16:57:49;20.70;99.90
12452;DHT22;6291;48.924;12.204;2023-05-07T17:02:52;20.60;99.90
12452;DHT22;6291;48.924;12.204;2023-05-07T17:07:57;20.40;99.90
12452;DHT22;6291;48.924;12.204;2023-05-07T17:13:00;20.20;99.90
12452;DHT22;6291;48.924;12.204;2023-05-07T17:18:04;20.00;99.90
12452;DHT22;6291;48.924;12.204;2023-05-07T17:23:09;19.80;99.90
12452;DHT22;6291;48.924;12.204;2023-05-07T17:28:12;19.70;99.90
12452;DHT22;6291;48.924;12.204;2023-05-07T17:33:16;19.50;99.90
12452;DHT22;6291;48.924;12.204;2023-05-07T17:38:24;19.30;99.90
12452;DHT22;6291;48.924;12.204;2023-05-07T17:43:27;19.10;99.90
12452;DHT22;6291;48.924;12.204;2023-05-07T17:48:31;19.00;99.90
12452;DHT22;6291;48.924;12.204;2023-05-07T17:53:37;18.80;99.90
12452;DHT22;6291;48.924;12.204;2023-05-07T17:58:41;18.60;99.90
12452;DHT22;6291;48.924;12.204;2023-05-07T18:04:01;18.50;99.90
12452;DHT22;6291;48.924;12.204;2023-05-07T18:09:06;21.90;99.90
12452;DHT22;6291;48.924;12.204;2023-05-07T18:14:10;18.30;99.90
12452;DHT22;6291;48.924;12.204;2023-05-07T18:19:13;20.70;99.90
12452;DHT22;6291;48.924;12.204;2023-05-07T18:24:18;18.00;99.90
12452;DHT22;6291;48.924;12.204;2023-05-07T18:29:22;18.00;99.90
12452;DHT22;6291;48.924;12.204;2023-05-07T18:34:25;17.90;99.90
12452;DHT22;6291;48.924;12.204;2023-05-07T18:39:31;17.80;99.90
12452;DHT22;6291;48.924;12.204;2023-05-07T18:44:34;17.60;99.90
12452;DHT22;6291;48.924;12.204;2023-05-07T18:49:39;17.60;99.90
12452;DHT22;6291;48.924;12.204;2023-05-07T18:54:43;17.50;99.90
12452;DHT22;6291;48.924;12.204;2023-05-07T18:59:47;17.40;99.90
12452;DHT22;6291;48.924;12.204;2023-05-07T19:04:50;17.30;99.90
12452;DHT22;6291;48.924;12.204;2023-05-07T19:09:55;17.10;99.90
12452;DHT22;6291;48.924;12.204;2023-05-07T19:15:08;17.00;99.90
12452;DHT22;6291;48.924;12.204;2023-05-07T19:20:12;16.90;99.90
12452;DHT22;6291;48.924;12.204;2023-05-07T19:25:16;16.80;99.90
12452;DHT22;6291;48.924;12.204;2023-05-07T19:30:20;16.70;99.90
12452;DHT22;6291;48.924;12.204;2023-05-07T19:35:23;16.60;99.90
12452;DHT22;6291;48.924;12.204;2023-05-07T19:40:28;16.60;99.90
12452;DHT22;6291;48.924;12.204;2023-05-07T19:45:31;16.50;99.90
12452;DHT22;6291;48.924;12.204;2023-05-07T19:50:34;16.50;99.90
12452;DHT22;6291;48.924;12.204;2023-05-07T19:55:40;16.50;99.90
12452;DHT22;6291;48.924;12.204;2023-05-07T20:00:43;16.50;99.90
12452;DHT22;6291;48.924;12.204;2023-05-07T20:05:47;16.40;99.90
12452;DHT22;6291;48.924;12.204;2023-05-07T20:10:53;16.40;99.90
12452;DHT22;6291;48.924;12.204;2023-05-07T20:15:59;16.40;99.90
12452;DHT22;6291;48.924;12.204;2023-05-07T20:21:02;16.30;99.90
12452;DHT22;6291;48.924;12.204;2023-05-07T20:26:07;16.30;99.90
12452;DHT22;6291;48.924;12.204;2023-05-07T20:31:11;16.30;99.90
12452;DHT22;6291;48.924;12.204;2023-05-07T20:36:14;16.30;99.90
12452;DHT22;6291;48.924;12.204;2023-05-07T20:41:19;16.20;99.90
12452;DHT22;6291;48.924;12.204;2023-05-07T20:46:25;16.20;99.90
12452;DHT22;6291;48.924;12.204;2023-05-07T20:51:29;16.10;99.90
12452;DHT22;6291;48.924;12.204;2023-05-07T20:56:34;16.00;99.90
12452;DHT22;6291;48.924;12.204;2023-05-07T21:01:37;16.00;99.90
12452;DHT22;6291;48.924;12.204;2023-05-07T21:06:41;16.00;99.90
12452;DHT22;6291;48.924;12.204;2023-05-07T21:11:47;15.90;99.90
12452;DHT22;6291;48.924;12.204;2023-05-07T21:16:50;20.20;99.90
12452;DHT22;6291;48.924;12.204;2023-05-07T21:21:53;15.80;99.90
12452;DHT22;6291;48.924;12.204;2023-05-07T21:27:01;15.80;99.90
12452;DHT22;6291;48.924;12.204;2023-05-07T21:32:04;15.70;99.90
12452;DHT22;6291;48.924;12.204;2023-05-07T21:37:08;15.70;99.90
12452;DHT22;6291;48.924;12.204;2023-05-07T21:42:13;15.70;99.90
12452;DHT22;6291;48.924;12.204;2023-05-07T21:47:16;15.60;99.90
12452;DHT22;6291;48.924;12.204;2023-05-07T21:52:19;15.50;99.90
12452;DHT22;6291;48.924;12.204;2023-05-07T21:57:28;15.40;99.90
12452;DHT22;6291;48.924;12.204;2023-05-07T22:02:31;15.30;99.90
12452;DHT22;6291;48.924;12.204;2023-05-07T22:07:35;15.20;99.90
12452;DHT22;6291;48.924;12.204;2023-05-07T22:12:39;15.10;99.90
12452;DHT22;6291;48.924;12.204;2023-05-07T22:17:43;15.00;99.90
12452;DHT22;6291;48.924;12.204;2023-05-07T22:22:46;15.00;99.90
12452;DHT22;6291;48.924;12.204;2023-05-07T22:27:54;14.90;99.90
12452;DHT22;6291;48.924;12.204;2023-05-07T22:32:57;15.00;99.90
12452;DHT22;6291;48.924;12.204;2023-05-07T22:38:01;14.90;99.90
12452;DHT22;6291;48.924;12.204;2023-05-07T22:43:06;14.80;99.90
12452;DHT22;6291;48.924;12.204;2023-05-07T22:48:09;14.70;99.90
12452;DHT22;6291;48.924;12.204;2023-05-07T22:53:12;14.50;99.90
12452;DHT22;6291;48.924;12.204;2023-05-07T22:58:17;14.50;99.90
12452;DHT22;6291;48.924;12.204;2023-05-07T23:03:20;10.60;99.90
12452;DHT22;6291;48.924;12.204;2023-05-07T23:08:24;14.50;99.90
12452;DHT22;6291;48.924;12.204;2023-05-07T23:13:28;14.40;99.90
12452;DHT22;6291;48.924;12.204;2023-05-07T23:18:31;14.20;99.90
12452;DHT22;6291;48.924;12.204;2023-05-07T23:23:35;14.20;99.90
12452;DHT22;6291;48.924;12.204;2023-05-07T23:28:40;14.20;99.90
12452;DHT22;6291;48.924;12.204;2023-05-07T23:33:43;14.20;99.90
12452;DHT22;6291;48.924;12.204;2023-05-07T23:38:46;14.20;99.90
12452;DHT22;6291;48.924;12.204;2023-05-07T23:43:51;14.10;99.90
12452;DHT22;6291;48.924;12.204;2023-05-07T23:48:54;14.00;99.90
12452;DHT22;6291;48.924;12.204;2023-05-07T23:53:57;13.90;99.90
12452;DHT22;6291;48.924;12.204;2023-05-07T23:59:02;11.90;99.90
